Terminal Aerodrome Forecast
Issued by NWS

Home | Current Version | Previous Version | Text Only | Print | Product List | Glossary On
Versions: 1 2 3 4 5 6 7 8 9 10 11 12 13 14 15
000
FTUS42 KTAE 012300
TAFDHN
TAF
KDHN 012334Z 0200/0224 09005KT P6SM BKN050 BKN250
     FM020900 11003KT 4SM BR BKN250
     FM021400 14005KT P6SM SCT050 BKN250=

USA.gov is the U.S. government's official web portal to all federal, state and local government web resources and services.